Merriam, Kansas
Current Conditions -  °F | °C
As of 10:54 PM on Saturday 22 Nov 2014 (Local Time) from KMKC Reporting Station
Overcast Overcast  
Wind Chill: 57°   Ceiling: 1600
Heat Index: 57°   Visibility: 10mi
Dew Point: 51°   Wind: 8mph
Humidity: 81%   Direction: 200°SSW
Pressure: 29.7"   Gusts: 18mph
Location:  38.993°N, 94.6774°W
Report Text: KMKC 230454Z 20007G16KT 10SM OVC016 14/11 A2970 RMK AO2 SLP055 T01390106
Loading
Personal Weather Stations






























Interactive Weather Map New forecast layout! Learn more

10-Day Weather Forecast

Advertisements
Track Severe Weather on mobile